createdAt,value
2022-09-26T00:01:37.128Z,8.10
2022-09-26T00:04:10.207Z,7.90
2022-09-26T00:06:37.606Z,7.90
2022-09-26T00:09:04.901Z,7.90
2022-09-26T00:11:34.402Z,7.80
2022-09-26T00:14:10.696Z,7.80
2022-09-26T00:16:38.735Z,7.80
2022-09-26T00:19:07.489Z,7.80
2022-09-26T00:21:35.424Z,7.70
2022-09-26T00:24:03.735Z,7.70
2022-09-26T00:26:33.637Z,7.70
2022-09-26T00:29:07.287Z,7.60
2022-09-26T00:31:40.051Z,7.50
2022-09-26T00:34:07.408Z,7.50
2022-09-26T00:36:38.520Z,7.50
2022-09-26T00:39:08.919Z,7.50
2022-09-26T00:41:37.247Z,7.40
2022-09-26T00:44:35.390Z,7.40
2022-09-26T00:47:03.105Z,7.40
2022-09-26T00:49:38.639Z,7.50
2022-09-26T00:52:28.047Z,7.50
2022-09-26T00:54:58.881Z,7.60
2022-09-26T00:57:39.919Z,7.60
2022-09-26T01:00:14.875Z,7.70
2022-09-26T01:02:44.077Z,7.80
2022-09-26T01:05:15.694Z,7.80
2022-09-26T01:07:43.535Z,7.90
2022-09-26T01:10:11.103Z,8.00
2022-09-26T01:12:38.599Z,8.00
2022-09-26T01:15:09.166Z,8.00
2022-09-26T01:17:40.743Z,8.00
2022-09-26T01:20:31.734Z,8.10
2022-09-26T01:23:42.109Z,8.10
2022-09-26T01:26:49.521Z,8.10
2022-09-26T01:30:00.751Z,8.00
2022-09-26T01:32:49.519Z,8.00
2022-09-26T01:35:22.150Z,7.90
2022-09-26T01:38:03.867Z,7.90
2022-09-26T01:41:05.399Z,7.80
2022-09-26T01:43:41.675Z,7.80
2022-09-26T01:46:31.095Z,7.80
2022-09-26T01:49:26.559Z,7.70
2022-09-26T01:52:19.888Z,7.60
2022-09-26T01:55:06.883Z,7.50
2022-09-26T01:57:48.554Z,7.50
2022-09-26T02:00:16.145Z,7.40
2022-09-26T02:02:47.606Z,7.40
2022-09-26T02:05:33.320Z,7.40
2022-09-26T02:08:05.392Z,7.30
2022-09-26T02:10:42.526Z,7.30
2022-09-26T02:13:25.261Z,7.20
2022-09-26T02:15:59.216Z,7.20
2022-09-26T02:18:36.316Z,7.10
2022-09-26T02:21:12.451Z,7.10
2022-09-26T02:23:39.476Z,7.10
2022-09-26T02:26:06.952Z,7.10
2022-09-26T02:28:34.115Z,7.10
2022-09-26T02:31:02.926Z,7.10
2022-09-26T02:33:30.723Z,7.10
2022-09-26T02:35:58.525Z,7.10
2022-09-26T02:38:31.820Z,7.10
2022-09-26T02:41:18.529Z,7.10
2022-09-26T02:44:22.805Z,7.10
2022-09-26T02:47:15.935Z,7.00
2022-09-26T02:50:16.915Z,7.00
2022-09-26T02:53:27.187Z,7.00
2022-09-26T02:56:09.609Z,6.90
2022-09-26T02:58:59.868Z,6.80
2022-09-26T03:01:40.236Z,6.80
2022-09-26T03:04:45.063Z,6.70
2022-09-26T03:07:21.191Z,6.60
2022-09-26T03:09:51.706Z,6.60
2022-09-26T03:12:20.292Z,6.50
2022-09-26T03:14:49.786Z,6.50
2022-09-26T03:17:19.012Z,6.50
2022-09-26T03:20:03.006Z,6.40
2022-09-26T03:22:30.284Z,6.40
2022-09-26T03:25:00.362Z,6.40
2022-09-26T03:27:27.985Z,6.40
2022-09-26T03:29:55.198Z,6.40
2022-09-26T03:32:22.192Z,6.30
2022-09-26T03:34:49.231Z,6.30
2022-09-26T03:37:17.315Z,6.30
2022-09-26T03:39:45.147Z,6.20
2022-09-26T03:42:14.286Z,6.30
2022-09-26T03:44:43.014Z,6.30
2022-09-26T03:47:10.895Z,6.30
2022-09-26T03:49:38.972Z,6.30
2022-09-26T03:52:07.469Z,6.30
2022-09-26T03:54:34.500Z,6.30
2022-09-26T03:57:01.498Z,6.30
2022-09-26T03:59:28.662Z,6.30
2022-09-26T04:01:55.780Z,6.20
2022-09-26T04:04:22.989Z,6.10
2022-09-26T04:06:51.351Z,6.00
2022-09-26T04:09:18.967Z,6.10
2022-09-26T04:11:46.671Z,6.10
2022-09-26T04:14:13.728Z,6.00
2022-09-26T04:16:40.813Z,6.00
2022-09-26T04:19:07.906Z,6.00
2022-09-26T04:21:35.706Z,6.00
2022-09-26T04:24:03.402Z,6.10
2022-09-26T04:26:30.388Z,6.10
2022-09-26T04:28:58.803Z,6.10
2022-09-26T04:31:30.739Z,6.20
2022-09-26T04:33:57.932Z,6.20
2022-09-26T04:36:24.973Z,6.20
2022-09-26T04:38:52.159Z,6.20
2022-09-26T04:41:21.745Z,6.20
2022-09-26T04:43:49.436Z,6.20
2022-09-26T04:46:24.536Z,6.20
2022-09-26T04:48:55.551Z,6.20
2022-09-26T04:51:25.112Z,6.20
2022-09-26T04:53:52.503Z,6.20
2022-09-26T04:56:22.667Z,6.20
2022-09-26T04:58:50.241Z,6.20
2022-09-26T05:01:20.340Z,6.20
2022-09-26T05:03:47.872Z,6.20
2022-09-26T05:06:17.615Z,6.10
2022-09-26T05:08:49.294Z,5.90
2022-09-26T05:11:18.532Z,5.90
2022-09-26T05:13:47.288Z,5.80
2022-09-26T05:16:18.565Z,5.90
2022-09-26T05:18:52.552Z,5.80
2022-09-26T05:21:20.335Z,5.80
2022-09-26T05:24:05.966Z,5.80
2022-09-26T05:26:48.570Z,5.80
2022-09-26T05:29:16.291Z,5.90
2022-09-26T05:31:43.724Z,5.90
2022-09-26T05:34:18.432Z,6.00
2022-09-26T05:36:47.097Z,6.00
2022-09-26T05:39:32.910Z,6.10
2022-09-26T05:42:00.318Z,6.20
2022-09-26T05:44:28.373Z,6.30
2022-09-26T05:46:57.542Z,6.30
2022-09-26T05:49:25.883Z,6.30
2022-09-26T05:51:53.906Z,6.40
2022-09-26T05:54:21.210Z,6.40
2022-09-26T05:56:48.567Z,6.40
2022-09-26T05:59:16.746Z,6.50
2022-09-26T06:01:43.913Z,6.50
2022-09-26T06:04:11.110Z,6.60
2022-09-26T06:06:38.264Z,6.70
2022-09-26T06:09:07.325Z,6.70
2022-09-26T06:11:34.543Z,6.70
2022-09-26T06:14:01.914Z,6.80
2022-09-26T06:16:29.863Z,6.80
2022-09-26T06:18:57.092Z,6.90
2022-09-26T06:21:24.349Z,7.00
2022-09-26T06:23:51.484Z,7.00
2022-09-26T06:26:25.316Z,7.10
2022-09-26T06:28:58.234Z,7.10
2022-09-26T06:31:26.281Z,7.10
2022-09-26T06:33:54.476Z,7.10
2022-09-26T06:36:24.148Z,7.20
2022-09-26T06:38:52.014Z,7.40
2022-09-26T06:41:19.435Z,7.40
2022-09-26T06:43:47.773Z,7.60
2022-09-26T06:46:17.737Z,7.70
2022-09-26T06:48:44.838Z,7.90
2022-09-26T06:51:14.409Z,8.10
2022-09-26T06:53:42.976Z,8.30
2022-09-26T06:56:09.963Z,8.50
2022-09-26T06:58:37.854Z,8.70
2022-09-26T07:01:06.811Z,8.90
2022-09-26T07:03:33.938Z,9.10
2022-09-26T07:06:00.988Z,9.20
2022-09-26T07:08:57.315Z,9.30
2022-09-26T07:11:35.227Z,9.40
2022-09-26T07:14:02.540Z,9.50
2022-09-26T07:16:30.885Z,9.50
2022-09-26T07:18:58.225Z,9.50
2022-09-26T07:21:25.302Z,9.50
2022-09-26T07:23:57.959Z,9.50
2022-09-26T07:26:24.974Z,9.50
2022-09-26T07:28:54.746Z,9.60
2022-09-26T07:31:26.413Z,9.60
2022-09-26T07:33:54.043Z,9.70
2022-09-26T07:36:21.185Z,9.80
2022-09-26T07:38:49.394Z,9.90
2022-09-26T07:41:17.611Z,10.00
2022-09-26T07:46:50.205Z,10.30
2022-09-26T07:49:35.817Z,10.30
2022-09-26T07:52:02.927Z,10.40
2022-09-26T07:54:29.946Z,10.40
2022-09-26T07:56:57.228Z,10.50
2022-09-26T07:59:24.266Z,10.60
2022-09-26T08:01:54.615Z,10.80
2022-09-26T08:04:21.670Z,10.90
2022-09-26T08:06:50.234Z,11.00
2022-09-26T08:09:17.320Z,11.10
2022-09-26T08:11:44.514Z,11.20
2022-09-26T08:14:11.913Z,11.20
2022-09-26T08:16:41.595Z,11.30
2022-09-26T08:19:12.846Z,11.30
2022-09-26T08:21:39.850Z,11.20
2022-09-26T08:24:06.989Z,11.20
2022-09-26T08:26:34.129Z,11.20
2022-09-26T08:29:02.202Z,11.10
2022-09-26T08:31:29.268Z,11.00
2022-09-26T08:33:58.196Z,11.00
2022-09-26T08:36:25.247Z,11.10
2022-09-26T08:38:52.332Z,11.10
2022-09-26T08:42:01.199Z,11.30
2022-09-26T08:44:59.856Z,11.40
2022-09-26T08:47:43.325Z,11.70
2022-09-26T08:50:24.446Z,11.80
2022-09-26T08:53:17.081Z,11.90
2022-09-26T08:55:48.259Z,12.00
2022-09-26T08:58:29.066Z,12.00
2022-09-26T09:01:03.381Z,12.10
2022-09-26T09:03:52.828Z,12.20
2022-09-26T09:06:19.999Z,12.20
2022-09-26T09:08:56.594Z,12.20
2022-09-26T09:12:05.258Z,12.20
2022-09-26T09:15:34.494Z,12.20
2022-09-26T09:18:22.772Z,12.10
2022-09-26T09:21:20.379Z,12.10
2022-09-26T09:24:36.320Z,12.30
2022-09-26T09:28:08.146Z,12.40
2022-09-26T09:30:51.017Z,12.50
2022-09-26T09:33:48.504Z,12.40
2022-09-26T09:36:21.700Z,12.40
2022-09-26T09:38:50.700Z,12.60
2022-09-26T09:41:25.122Z,12.70
2022-09-26T09:44:00.139Z,12.90
2022-09-26T09:46:32.329Z,13.00
2022-09-26T09:49:08.665Z,13.00
2022-09-26T09:52:01.887Z,13.10
2022-09-26T09:55:02.511Z,13.20
2022-09-26T09:58:18.511Z,13.30
2022-09-26T10:00:59.946Z,13.30
2022-09-26T10:04:03.546Z,13.40
2022-09-26T10:06:46.434Z,13.50
2022-09-26T10:09:39.834Z,13.80
2022-09-26T10:12:20.183Z,13.80
2022-09-26T10:15:27.512Z,13.70
2022-09-26T10:18:26.892Z,13.70
2022-09-26T10:21:08.949Z,13.50
2022-09-26T10:23:46.869Z,13.40
2022-09-26T10:26:14.395Z,13.20
2022-09-26T10:28:50.255Z,13.20
2022-09-26T10:31:56.824Z,13.20
2022-09-26T10:34:33.211Z,13.20
2022-09-26T10:37:25.818Z,13.20
2022-09-26T10:40:14.571Z,13.20
2022-09-26T10:42:46.678Z,13.10
2022-09-26T10:45:21.321Z,12.80
2022-09-26T10:47:51.953Z,12.80
2022-09-26T10:50:26.235Z,12.70
2022-09-26T10:53:10.258Z,12.80
2022-09-26T10:55:52.111Z,12.80
2022-09-26T10:58:24.165Z,13.00
2022-09-26T11:00:51.833Z,13.30
2022-09-26T11:03:24.836Z,13.40
2022-09-26T11:05:57.693Z,13.70
2022-09-26T11:08:33.709Z,13.90
2022-09-26T11:11:11.592Z,14.20
2022-09-26T11:13:50.246Z,14.50
2022-09-26T11:16:20.578Z,14.40
2022-09-26T11:19:12.181Z,14.20
2022-09-26T11:21:48.295Z,14.30
2022-09-26T11:24:42.890Z,14.40
2022-09-26T11:27:47.229Z,14.40
2022-09-26T11:30:20.759Z,14.50
2022-09-26T11:32:54.756Z,14.60
2022-09-26T11:36:11.104Z,14.60
2022-09-26T11:38:46.588Z,14.50
2022-09-26T11:41:38.964Z,14.40
2022-09-26T11:44:33.974Z,14.80
2022-09-26T11:47:38.545Z,15.30
2022-09-26T11:50:27.499Z,16.50
2022-09-26T11:53:08.306Z,17.10
2022-09-26T11:56:18.204Z,17.00
2022-09-26T11:58:47.958Z,16.90
2022-09-26T12:01:35.627Z,16.60
2022-09-26T12:05:15.028Z,15.80
2022-09-26T12:08:19.346Z,15.50
2022-09-26T12:11:00.681Z,15.00
2022-09-26T12:13:47.365Z,14.60
2022-09-26T12:16:49.473Z,14.50
2022-09-26T12:19:29.555Z,14.40
2022-09-26T12:22:25.403Z,14.50
2022-09-26T12:25:10.983Z,14.60
2022-09-26T12:27:59.315Z,14.50
2022-09-26T12:30:47.782Z,14.60
2022-09-26T12:33:48.603Z,14.90
2022-09-26T12:36:48.146Z,15.20
2022-09-26T12:40:02.484Z,15.60
2022-09-26T12:43:14.200Z,15.50
2022-09-26T12:45:59.276Z,15.40
2022-09-26T12:48:49.746Z,15.20
2022-09-26T12:51:22.803Z,14.90
2022-09-26T12:54:29.145Z,14.70
2022-09-26T12:57:31.363Z,14.60
2022-09-26T13:00:18.675Z,14.50
2022-09-26T13:03:16.771Z,14.50
2022-09-26T13:06:11.167Z,14.50
2022-09-26T13:09:01.958Z,14.40
2022-09-26T13:11:40.922Z,14.20
2022-09-26T13:14:35.066Z,14.20
2022-09-26T13:17:25.001Z,14.00
2022-09-26T13:20:03.950Z,14.00
2022-09-26T13:22:47.340Z,13.80
2022-09-26T13:25:19.924Z,13.20
2022-09-26T13:28:10.227Z,12.80
2022-09-26T13:30:43.208Z,12.60
2022-09-26T13:33:39.787Z,12.40
2022-09-26T13:36:09.834Z,12.30
2022-09-26T13:39:18.405Z,12.20
2022-09-26T13:42:17.408Z,12.20
2022-09-26T13:44:53.303Z,12.30
2022-09-26T13:47:56.099Z,12.40
2022-09-26T13:50:42.762Z,12.40
2022-09-26T13:53:38.283Z,12.50
2022-09-26T13:56:36.518Z,12.50
2022-09-26T13:59:12.460Z,12.60
2022-09-26T14:02:18.734Z,12.70
2022-09-26T14:04:53.718Z,12.70
2022-09-26T14:08:09.470Z,12.70
2022-09-26T14:10:43.353Z,12.80
2022-09-26T14:13:10.339Z,12.70
2022-09-26T14:15:49.717Z,12.80
2022-09-26T14:18:55.967Z,12.70
2022-09-26T14:21:38.360Z,12.70
2022-09-26T14:24:20.652Z,12.70
2022-09-26T14:27:10.427Z,12.70
2022-09-26T14:29:49.559Z,12.70
2022-09-26T14:32:46.095Z,12.60
2022-09-26T14:35:24.639Z,12.60
2022-09-26T14:37:52.728Z,12.60
2022-09-26T14:40:24.844Z,12.60
2022-09-26T14:43:04.872Z,12.60
2022-09-26T14:45:38.314Z,12.60
2022-09-26T14:48:36.870Z,12.60
2022-09-26T14:51:13.167Z,12.60
2022-09-26T14:53:51.215Z,12.50
2022-09-26T14:56:27.457Z,12.40
2022-09-26T14:59:33.501Z,12.40
2022-09-26T15:02:15.472Z,12.30
2022-09-26T15:04:45.846Z,12.10
2022-09-26T15:07:23.176Z,12.20
2022-09-26T15:09:57.149Z,12.40
2022-09-26T15:12:56.675Z,12.50
2022-09-26T15:15:35.419Z,12.70
2022-09-26T15:18:28.399Z,12.80
2022-09-26T15:21:04.689Z,13.00
2022-09-26T15:23:35.075Z,13.30
2022-09-26T15:26:02.946Z,13.50
2022-09-26T15:28:34.825Z,13.50
2022-09-26T15:31:37.554Z,13.50
2022-09-26T15:34:19.164Z,13.40
2022-09-26T15:36:54.343Z,13.40
2022-09-26T15:39:30.906Z,13.40
2022-09-26T15:42:29.567Z,13.30
2022-09-26T15:44:59.585Z,13.10
2022-09-26T15:47:26.570Z,13.00
2022-09-26T15:50:27.428Z,12.90
2022-09-26T15:53:20.208Z,12.90
2022-09-26T15:56:03.730Z,12.90
2022-09-26T15:58:43.838Z,12.90
2022-09-26T16:01:18.830Z,12.90
2022-09-26T16:04:00.667Z,12.80
2022-09-26T16:06:29.608Z,12.80
2022-09-26T16:09:43.388Z,12.80
2022-09-26T16:12:16.677Z,12.80
2022-09-26T16:14:48.920Z,12.80
2022-09-26T16:17:38.753Z,12.80
2022-09-26T16:20:31.067Z,12.90
2022-09-26T16:23:05.539Z,12.90
2022-09-26T16:25:47.806Z,12.90
2022-09-26T16:28:15.734Z,12.80
2022-09-26T16:31:10.346Z,12.80
2022-09-26T16:33:40.860Z,12.80
2022-09-26T16:36:17.586Z,12.80
2022-09-26T16:39:01.348Z,12.70
2022-09-26T16:44:35.531Z,12.60
2022-09-26T16:47:19.393Z,12.60
2022-09-26T16:49:48.588Z,12.60
2022-09-26T16:52:28.755Z,12.60
2022-09-26T16:54:59.151Z,12.50
2022-09-26T16:57:33.901Z,12.50
2022-09-26T17:00:34.768Z,12.40
2022-09-26T17:03:02.732Z,12.40
2022-09-26T17:05:30.309Z,12.40
2022-09-26T17:07:57.374Z,12.50
2022-09-26T17:10:25.708Z,12.50
2022-09-26T17:12:53.590Z,12.40
2022-09-26T17:15:28.506Z,12.50
2022-09-26T17:17:57.083Z,12.50
2022-09-26T17:20:24.887Z,12.50
2022-09-26T17:22:52.047Z,12.50
2022-09-26T17:25:19.283Z,12.40
2022-09-26T17:27:53.161Z,12.40
2022-09-26T17:30:20.669Z,12.40
2022-09-26T17:32:52.431Z,12.40
2022-09-26T17:35:22.210Z,12.40
2022-09-26T17:37:49.315Z,12.40
2022-09-26T17:40:22.938Z,12.50
2022-09-26T17:42:58.018Z,12.60
2022-09-26T17:45:40.683Z,12.50
2022-09-26T17:48:32.660Z,12.50
2022-09-26T17:51:02.255Z,12.40
2022-09-26T17:53:38.150Z,12.40
2022-09-26T17:56:06.611Z,12.30
2022-09-26T17:58:36.703Z,12.30
2022-09-26T18:01:05.070Z,12.30
2022-09-26T18:03:36.438Z,12.20
2022-09-26T18:06:04.020Z,12.20
2022-09-26T18:08:38.902Z,12.20
2022-09-26T18:11:14.209Z,12.00
2022-09-26T18:13:55.431Z,12.00
2022-09-26T18:16:24.965Z,11.90
2022-09-26T18:18:52.177Z,11.80
2022-09-26T18:21:19.990Z,11.80
2022-09-26T18:23:56.010Z,11.60
2022-09-26T18:26:30.660Z,11.50
2022-09-26T18:29:06.485Z,11.50
2022-09-26T18:31:38.747Z,11.40
2022-09-26T18:34:12.911Z,11.20
2022-09-26T18:36:40.047Z,11.20
2022-09-26T18:39:07.147Z,11.10
2022-09-26T18:41:35.351Z,11.00
2022-09-26T18:44:03.158Z,11.00
2022-09-26T18:46:30.776Z,10.90
2022-09-26T18:49:00.164Z,10.80
2022-09-26T18:51:27.392Z,10.80
2022-09-26T18:53:54.816Z,10.80
2022-09-26T18:56:40.425Z,10.80
2022-09-26T18:59:10.189Z,10.70
2022-09-26T19:01:42.900Z,10.70
2022-09-26T19:04:22.503Z,10.70
2022-09-26T19:07:05.646Z,10.70
2022-09-26T19:09:35.491Z,10.60
2022-09-26T19:12:03.968Z,10.60
2022-09-26T19:14:32.253Z,10.60
2022-09-26T19:16:59.633Z,10.60
2022-09-26T19:19:28.707Z,10.50
2022-09-26T19:21:58.700Z,10.50
2022-09-26T19:24:35.803Z,10.50
2022-09-26T19:27:06.569Z,10.50
2022-09-26T19:29:45.960Z,10.50
2022-09-26T19:32:22.157Z,10.50
2022-09-26T19:34:54.520Z,10.50
2022-09-26T19:37:21.730Z,10.50
2022-09-26T19:39:48.887Z,10.50
2022-09-26T19:42:15.990Z,10.50
2022-09-26T19:44:43.221Z,10.50
2022-09-26T19:47:22.539Z,10.50
2022-09-26T19:49:51.835Z,10.40
2022-09-26T19:52:20.956Z,10.40
2022-09-26T19:54:48.870Z,10.30
2022-09-26T19:57:18.645Z,10.20
2022-09-26T19:59:46.931Z,10.10
2022-09-26T20:02:21.380Z,10.00
2022-09-26T20:04:49.087Z,10.00
2022-09-26T20:07:19.138Z,9.90
2022-09-26T20:09:47.250Z,9.80
2022-09-26T20:12:15.070Z,9.80
2022-09-26T20:14:42.096Z,9.70
2022-09-26T20:17:25.290Z,9.70
2022-09-26T20:19:58.589Z,9.70
2022-09-26T20:22:26.574Z,9.60
2022-09-26T20:24:55.497Z,9.60
2022-09-26T20:27:28.139Z,9.60
2022-09-26T20:30:15.192Z,9.60
2022-09-26T20:32:42.548Z,9.60
2022-09-26T20:35:14.669Z,9.60
2022-09-26T20:37:42.735Z,9.60
2022-09-26T20:40:18.206Z,9.50
2022-09-26T20:42:49.125Z,9.40
2022-09-26T20:45:25.687Z,9.40
2022-09-26T20:47:52.768Z,9.30
2022-09-26T20:50:20.876Z,9.30
2022-09-26T20:52:48.192Z,9.20
2022-09-26T20:55:19.682Z,9.20
2022-09-26T20:57:47.970Z,9.20
2022-09-26T21:00:21.101Z,9.10
2022-09-26T21:02:52.422Z,9.20
2022-09-26T21:05:27.253Z,9.20
2022-09-26T21:07:56.259Z,9.10
2022-09-26T21:10:32.811Z,9.10
2022-09-26T21:13:00.978Z,9.10
2022-09-26T21:15:31.386Z,9.00
2022-09-26T21:17:59.957Z,9.00
2022-09-26T21:20:31.442Z,9.00
2022-09-26T21:23:01.610Z,9.00
2022-09-26T21:25:32.727Z,9.00
2022-09-26T21:28:13.771Z,9.00
2022-09-26T21:30:40.856Z,9.00
2022-09-26T21:33:13.101Z,9.00
2022-09-26T21:35:41.565Z,9.00
2022-09-26T21:38:09.185Z,9.00
2022-09-26T21:40:40.490Z,9.00
2022-09-26T21:43:17.203Z,9.00
2022-09-26T21:45:46.011Z,9.00
2022-09-26T21:48:15.850Z,9.00
2022-09-26T21:50:57.917Z,9.00
2022-09-26T21:54:05.601Z,9.10
2022-09-26T21:56:50.093Z,9.10
2022-09-26T21:59:20.079Z,9.10
2022-09-26T22:01:47.328Z,9.10
2022-09-26T22:04:14.739Z,9.10
2022-09-26T22:06:42.744Z,9.10
2022-09-26T22:09:09.999Z,9.10
2022-09-26T22:11:38.212Z,9.10
2022-09-26T22:14:05.639Z,9.10
2022-09-26T22:16:33.388Z,9.10
2022-09-26T22:19:00.878Z,9.10
2022-09-26T22:21:27.945Z,9.10
2022-09-26T22:23:55.062Z,9.10
2022-09-26T22:26:24.128Z,9.10
2022-09-26T22:28:51.373Z,9.10
2022-09-26T22:31:18.707Z,9.10
2022-09-26T22:33:45.849Z,9.20
2022-09-26T22:36:13.136Z,9.20
2022-09-26T22:38:40.603Z,9.10
2022-09-26T22:41:08.450Z,9.10
2022-09-26T22:43:36.321Z,9.10
2022-09-26T22:46:12.757Z,9.10
2022-09-26T22:48:48.081Z,9.10
2022-09-26T22:51:17.223Z,9.10
2022-09-26T22:53:45.398Z,9.10
2022-09-26T22:56:15.562Z,9.20
2022-09-26T22:58:49.520Z,9.10
2022-09-26T23:01:27.339Z,9.20
2022-09-26T23:03:55.300Z,9.20
2022-09-26T23:06:23.221Z,9.20
2022-09-26T23:08:51.067Z,9.20
2022-09-26T23:11:18.553Z,9.10
2022-09-26T23:13:46.839Z,9.20
2022-09-26T23:16:20.766Z,9.20
2022-09-26T23:18:50.023Z,9.20
2022-09-26T23:21:21.201Z,9.10
2022-09-26T23:23:52.279Z,9.20
2022-09-26T23:26:23.328Z,9.20
2022-09-26T23:28:51.867Z,9.10
2022-09-26T23:31:19.918Z,9.10
2022-09-26T23:33:47.489Z,9.10
2022-09-26T23:36:18.185Z,9.10
2022-09-26T23:38:45.461Z,9.10
2022-09-26T23:41:13.589Z,9.10
2022-09-26T23:43:40.984Z,9.10
2022-09-26T23:46:09.610Z,9.10
2022-09-26T23:48:37.384Z,9.10
2022-09-26T23:51:04.643Z,9.10
2022-09-26T23:53:33.726Z,9.10
2022-09-26T23:56:10.942Z,9.10
2022-09-26T23:58:38.578Z,9.10
